sensor_id;sensor_type;location;lat;lon;timestamp;temperature;humidity
9772;DHT22;4925;52.588;13.370;2023-08-17T00:01:39;22.50;99.90
9772;DHT22;4925;52.588;13.370;2023-08-17T00:04:05;22.50;99.90
9772;DHT22;4925;52.588;13.370;2023-08-17T00:06:31;22.50;99.90
9772;DHT22;4925;52.588;13.370;2023-08-17T00:08:56;22.50;99.90
9772;DHT22;4925;52.588;13.370;2023-08-17T00:11:22;22.50;99.90
9772;DHT22;4925;52.588;13.370;2023-08-17T00:13:48;22.50;99.90
9772;DHT22;4925;52.588;13.370;2023-08-17T00:16:13;22.40;99.90
9772;DHT22;4925;52.588;13.370;2023-08-17T00:18:39;22.40;99.90
9772;DHT22;4925;52.588;13.370;2023-08-17T00:21:05;22.40;99.90
9772;DHT22;4925;52.588;13.370;2023-08-17T00:23:30;22.30;99.90
9772;DHT22;4925;52.588;13.370;2023-08-17T00:25:56;22.30;99.90
9772;DHT22;4925;52.588;13.370;2023-08-17T00:28:22;22.30;99.90
9772;DHT22;4925;52.588;13.370;2023-08-17T00:30:48;22.30;99.90
9772;DHT22;4925;52.588;13.370;2023-08-17T00:33:13;22.30;99.90
9772;DHT22;4925;52.588;13.370;2023-08-17T00:35:39;22.20;99.90
9772;DHT22;4925;52.588;13.370;2023-08-17T00:38:04;22.20;99.90
9772;DHT22;4925;52.588;13.370;2023-08-17T00:40:30;22.00;99.90
9772;DHT22;4925;52.588;13.370;2023-08-17T00:42:56;22.00;99.90
9772;DHT22;4925;52.588;13.370;2023-08-17T00:45:22;22.00;99.90
9772;DHT22;4925;52.588;13.370;2023-08-17T00:47:49;21.80;99.90
9772;DHT22;4925;52.588;13.370;2023-08-17T00:50:15;21.80;99.90
9772;DHT22;4925;52.588;13.370;2023-08-17T00:52:42;21.80;99.90
9772;DHT22;4925;52.588;13.370;2023-08-17T00:55:09;21.90;99.90
9772;DHT22;4925;52.588;13.370;2023-08-17T00:57:36;21.90;99.90
9772;DHT22;4925;52.588;13.370;2023-08-17T01:00:03;21.90;99.90
9772;DHT22;4925;52.588;13.370;2023-08-17T01:02:30;21.80;99.90
9772;DHT22;4925;52.588;13.370;2023-08-17T01:04:56;21.80;99.90
9772;DHT22;4925;52.588;13.370;2023-08-17T01:07:22;21.80;99.90
9772;DHT22;4925;52.588;13.370;2023-08-17T01:09:47;21.80;99.90
9772;DHT22;4925;52.588;13.370;2023-08-17T01:12:32;21.80;99.90
9772;DHT22;4925;52.588;13.370;2023-08-17T01:15:16;21.80;99.90
9772;DHT22;4925;52.588;13.370;2023-08-17T01:17:52;21.80;99.90
9772;DHT22;4925;52.588;13.370;2023-08-17T01:20:19;21.80;99.90
9772;DHT22;4925;52.588;13.370;2023-08-17T01:22:49;21.80;99.90
9772;DHT22;4925;52.588;13.370;2023-08-17T01:25:16;21.70;99.90
9772;DHT22;4925;52.588;13.370;2023-08-17T01:27:46;21.60;99.90
9772;DHT22;4925;52.588;13.370;2023-08-17T01:30:14;21.60;99.90
9772;DHT22;4925;52.588;13.370;2023-08-17T01:33:07;21.60;99.90
9772;DHT22;4925;52.588;13.370;2023-08-17T01:35:48;21.50;99.90
9772;DHT22;4925;52.588;13.370;2023-08-17T01:38:18;21.50;99.90
9772;DHT22;4925;52.588;13.370;2023-08-17T01:40:48;21.50;99.90
9772;DHT22;4925;52.588;13.370;2023-08-17T01:43:16;21.40;99.90
9772;DHT22;4925;52.588;13.370;2023-08-17T01:45:42;21.40;99.90
9772;DHT22;4925;52.588;13.370;2023-08-17T01:48:07;21.40;99.90
9772;DHT22;4925;52.588;13.370;2023-08-17T01:50:33;21.40;99.90
9772;DHT22;4925;52.588;13.370;2023-08-17T01:52:59;21.30;99.90
9772;DHT22;4925;52.588;13.370;2023-08-17T01:55:25;21.30;99.90
9772;DHT22;4925;52.588;13.370;2023-08-17T01:57:52;21.30;99.90
9772;DHT22;4925;52.588;13.370;2023-08-17T02:00:18;21.30;99.90
9772;DHT22;4925;52.588;13.370;2023-08-17T02:02:44;21.20;99.90
9772;DHT22;4925;52.588;13.370;2023-08-17T02:05:09;21.20;99.90
9772;DHT22;4925;52.588;13.370;2023-08-17T02:07:35;21.20;99.90
9772;DHT22;4925;52.588;13.370;2023-08-17T02:10:00;21.20;99.90
9772;DHT22;4925;52.588;13.370;2023-08-17T02:12:26;21.10;99.90
9772;DHT22;4925;52.588;13.370;2023-08-17T02:14:52;21.10;99.90
9772;DHT22;4925;52.588;13.370;2023-08-17T02:17:18;20.90;99.90
9772;DHT22;4925;52.588;13.370;2023-08-17T02:19:45;20.90;99.90
9772;DHT22;4925;52.588;13.370;2023-08-17T02:22:10;20.90;99.90
9772;DHT22;4925;52.588;13.370;2023-08-17T02:24:36;20.90;99.90
9772;DHT22;4925;52.588;13.370;2023-08-17T02:27:02;20.90;99.90
9772;DHT22;4925;52.588;13.370;2023-08-17T02:29:28;20.90;99.90
9772;DHT22;4925;52.588;13.370;2023-08-17T02:31:53;20.90;99.90
9772;DHT22;4925;52.588;13.370;2023-08-17T02:34:19;20.90;99.90
9772;DHT22;4925;52.588;13.370;2023-08-17T02:36:45;20.90;99.90
9772;DHT22;4925;52.588;13.370;2023-08-17T02:39:11;20.90;99.90
9772;DHT22;4925;52.588;13.370;2023-08-17T02:41:36;20.90;99.90
9772;DHT22;4925;52.588;13.370;2023-08-17T02:44:02;20.80;99.90
9772;DHT22;4925;52.588;13.370;2023-08-17T02:46:28;20.80;99.90
9772;DHT22;4925;52.588;13.370;2023-08-17T02:48:54;20.80;99.90
9772;DHT22;4925;52.588;13.370;2023-08-17T02:51:19;20.80;99.90
9772;DHT22;4925;52.588;13.370;2023-08-17T02:53:45;20.80;99.90
9772;DHT22;4925;52.588;13.370;2023-08-17T02:56:10;20.80;99.90
9772;DHT22;4925;52.588;13.370;2023-08-17T02:58:38;20.70;99.90
9772;DHT22;4925;52.588;13.370;2023-08-17T03:01:07;20.70;99.90
9772;DHT22;4925;52.588;13.370;2023-08-17T03:03:33;20.70;99.90
9772;DHT22;4925;52.588;13.370;2023-08-17T03:05:59;20.70;99.90
9772;DHT22;4925;52.588;13.370;2023-08-17T03:08:25;20.70;99.90
9772;DHT22;4925;52.588;13.370;2023-08-17T03:10:50;20.80;99.90
9772;DHT22;4925;52.588;13.370;2023-08-17T03:13:16;20.80;99.90
9772;DHT22;4925;52.588;13.370;2023-08-17T03:15:41;20.80;99.90
9772;DHT22;4925;52.588;13.370;2023-08-17T03:18:07;20.80;99.90
9772;DHT22;4925;52.588;13.370;2023-08-17T03:20:33;20.80;99.90
9772;DHT22;4925;52.588;13.370;2023-08-17T03:22:59;20.80;99.90
9772;DHT22;4925;52.588;13.370;2023-08-17T03:25:25;20.80;99.90
9772;DHT22;4925;52.588;13.370;2023-08-17T03:27:51;20.80;99.00
9772;DHT22;4925;52.588;13.370;2023-08-17T03:30:16;20.80;97.20
9772;DHT22;4925;52.588;13.370;2023-08-17T03:32:42;20.80;97.80
9772;DHT22;4925;52.588;13.370;2023-08-17T03:35:08;20.80;94.10
9772;DHT22;4925;52.588;13.370;2023-08-17T03:37:34;20.70;87.90
9772;DHT22;4925;52.588;13.370;2023-08-17T03:39:59;20.80;77.70
9772;DHT22;4925;52.588;13.370;2023-08-17T03:42:26;20.80;71.10
9772;DHT22;4925;52.588;13.370;2023-08-17T03:44:52;20.90;64.80
9772;DHT22;4925;52.588;13.370;2023-08-17T03:47:18;20.90;59.10
9772;DHT22;4925;52.588;13.370;2023-08-17T03:49:44;20.90;56.80
9772;DHT22;4925;52.588;13.370;2023-08-17T03:52:10;20.80;52.10
9772;DHT22;4925;52.588;13.370;2023-08-17T03:54:36;20.80;49.50
9772;DHT22;4925;52.588;13.370;2023-08-17T03:57:01;20.70;52.20
9772;DHT22;4925;52.588;13.370;2023-08-17T03:59:28;20.70;52.10
9772;DHT22;4925;52.588;13.370;2023-08-17T04:01:53;20.70;50.90
9772;DHT22;4925;52.588;13.370;2023-08-17T04:04:19;20.70;49.70
9772;DHT22;4925;52.588;13.370;2023-08-17T04:06:45;20.70;51.90
9772;DHT22;4925;52.588;13.370;2023-08-17T04:09:10;20.70;49.80
9772;DHT22;4925;52.588;13.370;2023-08-17T04:11:36;20.70;50.70
9772;DHT22;4925;52.588;13.370;2023-08-17T04:14:03;20.70;52.40
9772;DHT22;4925;52.588;13.370;2023-08-17T04:16:29;20.70;53.50
9772;DHT22;4925;52.588;13.370;2023-08-17T04:18:54;20.70;52.70
9772;DHT22;4925;52.588;13.370;2023-08-17T04:21:20;20.70;54.70
9772;DHT22;4925;52.588;13.370;2023-08-17T04:23:46;20.80;57.00
9772;DHT22;4925;52.588;13.370;2023-08-17T04:26:11;20.70;58.00
9772;DHT22;4925;52.588;13.370;2023-08-17T04:28:37;20.70;64.00
9772;DHT22;4925;52.588;13.370;2023-08-17T04:31:03;20.60;69.50
9772;DHT22;4925;52.588;13.370;2023-08-17T04:33:28;20.80;66.90
9772;DHT22;4925;52.588;13.370;2023-08-17T04:35:57;20.80;64.80
9772;DHT22;4925;52.588;13.370;2023-08-17T04:38:25;20.90;76.60
9772;DHT22;4925;52.588;13.370;2023-08-17T04:40:51;20.90;69.90
9772;DHT22;4925;52.588;13.370;2023-08-17T04:43:16;21.00;67.90
9772;DHT22;4925;52.588;13.370;2023-08-17T04:45:42;21.10;57.70
9772;DHT22;4925;52.588;13.370;2023-08-17T04:48:08;21.10;60.00
9772;DHT22;4925;52.588;13.370;2023-08-17T04:50:33;21.20;56.60
9772;DHT22;4925;52.588;13.370;2023-08-17T04:52:59;21.30;46.20
9772;DHT22;4925;52.588;13.370;2023-08-17T04:55:25;21.40;35.40
9772;DHT22;4925;52.588;13.370;2023-08-17T04:57:50;21.40;32.80
9772;DHT22;4925;52.588;13.370;2023-08-17T05:00:16;21.30;8.00
9772;DHT22;4925;52.588;13.370;2023-08-17T05:02:42;21.30;8.70
9772;DHT22;4925;52.588;13.370;2023-08-17T05:05:09;21.30;10.60
9772;DHT22;4925;52.588;13.370;2023-08-17T05:07:35;21.30;17.50
9772;DHT22;4925;52.588;13.370;2023-08-17T05:10:01;21.40;8.80
9772;DHT22;4925;52.588;13.370;2023-08-17T05:12:27;21.50;1.00
9772;DHT22;4925;52.588;13.370;2023-08-17T05:14:53;21.60;2.10
9772;DHT22;4925;52.588;13.370;2023-08-17T05:17:18;21.60;3.10
9772;DHT22;4925;52.588;13.370;2023-08-17T05:19:44;21.70;1.00
9772;DHT22;4925;52.588;13.370;2023-08-17T05:22:11;21.70;1.00
9772;DHT22;4925;52.588;13.370;2023-08-17T05:24:38;21.70;1.00
9772;DHT22;4925;52.588;13.370;2023-08-17T05:27:03;21.70;1.00
9772;DHT22;4925;52.588;13.370;2023-08-17T05:29:29;21.70;1.00
9772;DHT22;4925;52.588;13.370;2023-08-17T05:31:55;21.80;1.00
9772;DHT22;4925;52.588;13.370;2023-08-17T05:34:22;21.80;1.00
9772;DHT22;4925;52.588;13.370;2023-08-17T05:36:48;21.80;1.00
9772;DHT22;4925;52.588;13.370;2023-08-17T05:39:14;21.80;99.90
9772;DHT22;4925;52.588;13.370;2023-08-17T05:41:39;21.90;1.00
9772;DHT22;4925;52.588;13.370;2023-08-17T05:44:05;22.00;21.50
9772;DHT22;4925;52.588;13.370;2023-08-17T05:46:33;22.00;99.90
9772;DHT22;4925;52.588;13.370;2023-08-17T05:48:59;22.00;99.90
9772;DHT22;4925;52.588;13.370;2023-08-17T05:51:25;22.10;99.90
9772;DHT22;4925;52.588;13.370;2023-08-17T05:53:51;22.10;99.90
9772;DHT22;4925;52.588;13.370;2023-08-17T05:56:16;22.10;99.90
9772;DHT22;4925;52.588;13.370;2023-08-17T05:58:42;22.20;99.90
9772;DHT22;4925;52.588;13.370;2023-08-17T06:01:09;22.20;99.90
9772;DHT22;4925;52.588;13.370;2023-08-17T06:03:36;22.20;99.90
9772;DHT22;4925;52.588;13.370;2023-08-17T06:06:02;22.30;99.90
9772;DHT22;4925;52.588;13.370;2023-08-17T06:08:28;22.50;99.90
9772;DHT22;4925;52.588;13.370;2023-08-17T06:10:55;22.40;99.90
9772;DHT22;4925;52.588;13.370;2023-08-17T06:13:20;22.20;99.90
9772;DHT22;4925;52.588;13.370;2023-08-17T06:15:46;22.20;99.90
9772;DHT22;4925;52.588;13.370;2023-08-17T06:18:12;22.10;99.90
9772;DHT22;4925;52.588;13.370;2023-08-17T06:20:38;22.10;99.90
9772;DHT22;4925;52.588;13.370;2023-08-17T06:23:04;22.20;99.90
9772;DHT22;4925;52.588;13.370;2023-08-17T06:25:30;22.00;99.90
9772;DHT22;4925;52.588;13.370;2023-08-17T06:27:55;22.20;99.90
9772;DHT22;4925;52.588;13.370;2023-08-17T06:30:21;22.40;99.90
9772;DHT22;4925;52.588;13.370;2023-08-17T06:32:47;22.50;99.90
9772;DHT22;4925;52.588;13.370;2023-08-17T06:35:12;22.60;99.90
9772;DHT22;4925;52.588;13.370;2023-08-17T06:37:38;22.80;99.90
9772;DHT22;4925;52.588;13.370;2023-08-17T06:40:04;22.90;99.90
9772;DHT22;4925;52.588;13.370;2023-08-17T06:42:34;23.00;99.90
9772;DHT22;4925;52.588;13.370;2023-08-17T06:45:00;23.20;99.90
9772;DHT22;4925;52.588;13.370;2023-08-17T06:47:26;23.40;99.90
9772;DHT22;4925;52.588;13.370;2023-08-17T06:49:52;23.50;99.90
9772;DHT22;4925;52.588;13.370;2023-08-17T06:52:17;23.50;99.90
9772;DHT22;4925;52.588;13.370;2023-08-17T06:54:43;23.60;99.90
9772;DHT22;4925;52.588;13.370;2023-08-17T06:57:09;23.70;99.90
9772;DHT22;4925;52.588;13.370;2023-08-17T06:59:35;23.80;99.90
9772;DHT22;4925;52.588;13.370;2023-08-17T07:02:00;24.00;99.90
9772;DHT22;4925;52.588;13.370;2023-08-17T07:04:26;24.00;99.90
9772;DHT22;4925;52.588;13.370;2023-08-17T07:06:52;23.90;99.90
9772;DHT22;4925;52.588;13.370;2023-08-17T07:09:17;23.90;99.90
9772;DHT22;4925;52.588;13.370;2023-08-17T07:11:44;23.70;99.90
9772;DHT22;4925;52.588;13.370;2023-08-17T07:14:09;23.80;99.90
9772;DHT22;4925;52.588;13.370;2023-08-17T07:16:35;23.80;99.90
9772;DHT22;4925;52.588;13.370;2023-08-17T07:19:02;23.80;99.90
9772;DHT22;4925;52.588;13.370;2023-08-17T07:21:27;23.90;99.90
9772;DHT22;4925;52.588;13.370;2023-08-17T07:23:54;23.80;99.90
9772;DHT22;4925;52.588;13.370;2023-08-17T07:26:20;23.90;99.90
9772;DHT22;4925;52.588;13.370;2023-08-17T07:28:47;24.00;99.90
9772;DHT22;4925;52.588;13.370;2023-08-17T07:31:13;24.00;99.90
9772;DHT22;4925;52.588;13.370;2023-08-17T07:33:39;24.00;99.90
9772;DHT22;4925;52.588;13.370;2023-08-17T07:36:04;24.10;99.90
9772;DHT22;4925;52.588;13.370;2023-08-17T07:38:30;24.20;99.90
9772;DHT22;4925;52.588;13.370;2023-08-17T07:40:56;24.20;99.90
9772;DHT22;4925;52.588;13.370;2023-08-17T07:43:22;24.30;99.90
9772;DHT22;4925;52.588;13.370;2023-08-17T07:45:58;24.20;99.90
9772;DHT22;4925;52.588;13.370;2023-08-17T07:48:23;24.30;99.90
9772;DHT22;4925;52.588;13.370;2023-08-17T07:50:52;24.20;99.90
9772;DHT22;4925;52.588;13.370;2023-08-17T07:53:19;24.20;99.90
9772;DHT22;4925;52.588;13.370;2023-08-17T07:55:45;24.10;99.90
9772;DHT22;4925;52.588;13.370;2023-08-17T07:58:11;24.20;99.90
9772;DHT22;4925;52.588;13.370;2023-08-17T08:00:37;24.20;99.90
9772;DHT22;4925;52.588;13.370;2023-08-17T08:03:03;24.30;99.90
9772;DHT22;4925;52.588;13.370;2023-08-17T08:05:29;24.40;99.90
9772;DHT22;4925;52.588;13.370;2023-08-17T08:07:55;24.40;99.90
9772;DHT22;4925;52.588;13.370;2023-08-17T08:10:20;24.50;99.90
9772;DHT22;4925;52.588;13.370;2023-08-17T08:12:47;24.70;99.90
9772;DHT22;4925;52.588;13.370;2023-08-17T08:15:13;24.90;99.90
9772;DHT22;4925;52.588;13.370;2023-08-17T08:17:38;24.90;99.90
9772;DHT22;4925;52.588;13.370;2023-08-17T08:20:04;25.00;99.90
9772;DHT22;4925;52.588;13.370;2023-08-17T08:22:30;25.10;99.90
9772;DHT22;4925;52.588;13.370;2023-08-17T08:24:57;25.20;99.90
9772;DHT22;4925;52.588;13.370;2023-08-17T08:27:23;25.20;99.90
9772;DHT22;4925;52.588;13.370;2023-08-17T08:29:48;25.30;99.90
9772;DHT22;4925;52.588;13.370;2023-08-17T08:32:14;25.40;99.90
9772;DHT22;4925;52.588;13.370;2023-08-17T08:34:40;25.40;99.90
9772;DHT22;4925;52.588;13.370;2023-08-17T08:37:05;25.60;99.90
9772;DHT22;4925;52.588;13.370;2023-08-17T08:39:31;25.80;99.90
9772;DHT22;4925;52.588;13.370;2023-08-17T08:41:57;25.80;99.90
9772;DHT22;4925;52.588;13.370;2023-08-17T08:44:23;26.00;99.90
9772;DHT22;4925;52.588;13.370;2023-08-17T08:46:50;26.20;99.90
9772;DHT22;4925;52.588;13.370;2023-08-17T08:49:20;26.10;99.90
9772;DHT22;4925;52.588;13.370;2023-08-17T08:51:50;26.10;99.90
9772;DHT22;4925;52.588;13.370;2023-08-17T08:54:20;25.90;99.90
9772;DHT22;4925;52.588;13.370;2023-08-17T08:56:54;25.70;99.90
9772;DHT22;4925;52.588;13.370;2023-08-17T08:59:23;25.70;99.90
9772;DHT22;4925;52.588;13.370;2023-08-17T09:01:49;25.50;99.90
9772;DHT22;4925;52.588;13.370;2023-08-17T09:04:16;25.50;99.90
9772;DHT22;4925;52.588;13.370;2023-08-17T09:06:43;25.30;99.90
9772;DHT22;4925;52.588;13.370;2023-08-17T09:09:09;25.30;99.90
9772;DHT22;4925;52.588;13.370;2023-08-17T09:11:36;25.20;99.90
9772;DHT22;4925;52.588;13.370;2023-08-17T09:14:02;25.20;99.90
9772;DHT22;4925;52.588;13.370;2023-08-17T09:16:28;25.30;99.90
9772;DHT22;4925;52.588;13.370;2023-08-17T09:18:54;25.30;99.90
9772;DHT22;4925;52.588;13.370;2023-08-17T09:21:21;25.20;99.90
9772;DHT22;4925;52.588;13.370;2023-08-17T09:23:54;25.20;99.90
9772;DHT22;4925;52.588;13.370;2023-08-17T09:26:21;25.20;99.90
9772;DHT22;4925;52.588;13.370;2023-08-17T09:28:53;25.20;99.90
9772;DHT22;4925;52.588;13.370;2023-08-17T09:31:23;25.40;99.90
9772;DHT22;4925;52.588;13.370;2023-08-17T09:33:52;25.60;99.90
9772;DHT22;4925;52.588;13.370;2023-08-17T09:36:22;25.60;99.90
9772;DHT22;4925;52.588;13.370;2023-08-17T09:38:48;25.70;99.90
9772;DHT22;4925;52.588;13.370;2023-08-17T09:41:16;25.80;99.90
9772;DHT22;4925;52.588;13.370;2023-08-17T09:43:41;26.00;99.90
9772;DHT22;4925;52.588;13.370;2023-08-17T09:46:07;26.10;99.90
9772;DHT22;4925;52.588;13.370;2023-08-17T09:48:35;26.40;99.90
9772;DHT22;4925;52.588;13.370;2023-08-17T09:51:01;26.40;99.90
9772;DHT22;4925;52.588;13.370;2023-08-17T09:53:27;26.60;99.90
9772;DHT22;4925;52.588;13.370;2023-08-17T09:55:53;26.60;99.90
9772;DHT22;4925;52.588;13.370;2023-08-17T09:58:20;26.70;99.90
9772;DHT22;4925;52.588;13.370;2023-08-17T10:00:50;26.70;99.90
9772;DHT22;4925;52.588;13.370;2023-08-17T10:03:17;26.80;99.90
9772;DHT22;4925;52.588;13.370;2023-08-17T10:05:44;26.90;99.90
9772;DHT22;4925;52.588;13.370;2023-08-17T10:08:12;26.80;99.90
9772;DHT22;4925;52.588;13.370;2023-08-17T10:10:43;26.80;99.90
9772;DHT22;4925;52.588;13.370;2023-08-17T10:13:16;27.00;99.90
9772;DHT22;4925;52.588;13.370;2023-08-17T10:16:22;27.00;99.90
9772;DHT22;4925;52.588;13.370;2023-08-17T10:21:28;26.90;99.90
9772;DHT22;4925;52.588;13.370;2023-08-17T10:23:55;26.90;99.90
9772;DHT22;4925;52.588;13.370;2023-08-17T10:26:22;26.90;99.90
9772;DHT22;4925;52.588;13.370;2023-08-17T10:28:49;26.80;99.90
9772;DHT22;4925;52.588;13.370;2023-08-17T10:31:15;26.60;99.90
9772;DHT22;4925;52.588;13.370;2023-08-17T10:33:42;26.50;99.90
9772;DHT22;4925;52.588;13.370;2023-08-17T10:36:12;26.40;99.90
9772;DHT22;4925;52.588;13.370;2023-08-17T10:38:39;26.20;99.90
9772;DHT22;4925;52.588;13.370;2023-08-17T10:41:22;26.20;99.90
9772;DHT22;4925;52.588;13.370;2023-08-17T10:43:57;26.20;99.90
9772;DHT22;4925;52.588;13.370;2023-08-17T10:46:34;26.20;99.90
9772;DHT22;4925;52.588;13.370;2023-08-17T10:49:04;26.20;99.90
9772;DHT22;4925;52.588;13.370;2023-08-17T10:51:36;26.40;99.90
9772;DHT22;4925;52.588;13.370;2023-08-17T10:54:02;26.50;99.90
9772;DHT22;4925;52.588;13.370;2023-08-17T10:56:29;26.80;99.90
9772;DHT22;4925;52.588;13.370;2023-08-17T10:59:02;27.20;99.90
9772;DHT22;4925;52.588;13.370;2023-08-17T11:01:40;27.60;99.90
9772;DHT22;4925;52.588;13.370;2023-08-17T11:04:12;27.90;99.90
9772;DHT22;4925;52.588;13.370;2023-08-17T11:06:38;28.10;99.90
9772;DHT22;4925;52.588;13.370;2023-08-17T11:09:08;28.30;99.90
9772;DHT22;4925;52.588;13.370;2023-08-17T11:11:34;28.80;99.90
9772;DHT22;4925;52.588;13.370;2023-08-17T11:14:00;29.10;99.90
9772;DHT22;4925;52.588;13.370;2023-08-17T11:16:25;29.40;99.90
9772;DHT22;4925;52.588;13.370;2023-08-17T11:18:51;29.80;98.60
9772;DHT22;4925;52.588;13.370;2023-08-17T11:21:18;30.10;98.00
9772;DHT22;4925;52.588;13.370;2023-08-17T11:23:44;30.50;97.30
9772;DHT22;4925;52.588;13.370;2023-08-17T11:26:10;30.60;96.30
9772;DHT22;4925;52.588;13.370;2023-08-17T11:28:36;31.10;95.60
9772;DHT22;4925;52.588;13.370;2023-08-17T11:31:07;31.30;94.70
9772;DHT22;4925;52.588;13.370;2023-08-17T11:33:34;31.40;94.00
9772;DHT22;4925;52.588;13.370;2023-08-17T11:36:03;31.60;93.70
9772;DHT22;4925;52.588;13.370;2023-08-17T11:38:41;31.60;93.40
9772;DHT22;4925;52.588;13.370;2023-08-17T11:41:07;31.60;93.90
9772;DHT22;4925;52.588;13.370;2023-08-17T11:43:34;31.70;93.40
9772;DHT22;4925;52.588;13.370;2023-08-17T11:46:01;31.70;93.00
9772;DHT22;4925;52.588;13.370;2023-08-17T11:48:27;31.60;93.30
9772;DHT22;4925;52.588;13.370;2023-08-17T11:50:53;31.40;93.80
9772;DHT22;4925;52.588;13.370;2023-08-17T11:53:20;31.30;94.40
9772;DHT22;4925;52.588;13.370;2023-08-17T11:55:46;31.40;94.40
9772;DHT22;4925;52.588;13.370;2023-08-17T11:58:12;31.60;94.20
9772;DHT22;4925;52.588;13.370;2023-08-17T12:00:42;31.70;93.90
9772;DHT22;4925;52.588;13.370;2023-08-17T12:03:13;31.70;93.40
9772;DHT22;4925;52.588;13.370;2023-08-17T12:05:40;31.70;93.60
9772;DHT22;4925;52.588;13.370;2023-08-17T12:08:07;31.80;93.30
9772;DHT22;4925;52.588;13.370;2023-08-17T12:10:33;31.80;93.60
9772;DHT22;4925;52.588;13.370;2023-08-17T12:13:00;32.10;93.70
9772;DHT22;4925;52.588;13.370;2023-08-17T12:15:33;32.50;92.80
9772;DHT22;4925;52.588;13.370;2023-08-17T12:18:01;32.70;91.80
9772;DHT22;4925;52.588;13.370;2023-08-17T12:20:27;32.90;91.60
9772;DHT22;4925;52.588;13.370;2023-08-17T12:22:53;33.10;91.40
9772;DHT22;4925;52.588;13.370;2023-08-17T12:25:23;33.30;90.60
9772;DHT22;4925;52.588;13.370;2023-08-17T12:27:49;33.40;90.20
9772;DHT22;4925;52.588;13.370;2023-08-17T12:30:28;33.80;88.80
9772;DHT22;4925;52.588;13.370;2023-08-17T12:32:54;33.70;88.30
9772;DHT22;4925;52.588;13.370;2023-08-17T12:35:20;33.50;89.60
9772;DHT22;4925;52.588;13.370;2023-08-17T12:37:47;33.30;90.40
9772;DHT22;4925;52.588;13.370;2023-08-17T12:40:14;33.20;90.30
9772;DHT22;4925;52.588;13.370;2023-08-17T12:42:40;33.00;90.80
9772;DHT22;4925;52.588;13.370;2023-08-17T12:45:06;32.80;91.20
9772;DHT22;4925;52.588;13.370;2023-08-17T12:47:31;32.70;91.60
9772;DHT22;4925;52.588;13.370;2023-08-17T12:49:57;32.50;92.10
9772;DHT22;4925;52.588;13.370;2023-08-17T12:52:23;32.30;92.60
9772;DHT22;4925;52.588;13.370;2023-08-17T12:54:48;32.20;92.90
9772;DHT22;4925;52.588;13.370;2023-08-17T12:57:14;32.10;93.40
9772;DHT22;4925;52.588;13.370;2023-08-17T12:59:40;32.30;93.30
9772;DHT22;4925;52.588;13.370;2023-08-17T13:02:05;32.30;93.20
9772;DHT22;4925;52.588;13.370;2023-08-17T13:04:31;32.30;93.30
9772;DHT22;4925;52.588;13.370;2023-08-17T13:06:57;32.30;93.80
9772;DHT22;4925;52.588;13.370;2023-08-17T13:09:22;32.10;94.00
9772;DHT22;4925;52.588;13.370;2023-08-17T13:11:48;32.40;93.30
9772;DHT22;4925;52.588;13.370;2023-08-17T13:14:14;32.50;93.40
9772;DHT22;4925;52.588;13.370;2023-08-17T13:16:41;32.50;93.70
9772;DHT22;4925;52.588;13.370;2023-08-17T13:19:07;32.10;94.20
9772;DHT22;4925;52.588;13.370;2023-08-17T13:21:32;32.00;94.70
9772;DHT22;4925;52.588;13.370;2023-08-17T13:23:58;32.20;94.70
9772;DHT22;4925;52.588;13.370;2023-08-17T13:26:24;32.10;94.70
9772;DHT22;4925;52.588;13.370;2023-08-17T13:28:49;32.10;95.00
9772;DHT22;4925;52.588;13.370;2023-08-17T13:31:15;32.10;94.40
9772;DHT22;4925;52.588;13.370;2023-08-17T13:33:41;32.10;94.30
9772;DHT22;4925;52.588;13.370;2023-08-17T13:36:06;31.90;94.40
9772;DHT22;4925;52.588;13.370;2023-08-17T13:38:32;32.00;94.70
9772;DHT22;4925;52.588;13.370;2023-08-17T13:40:58;32.00;94.60
9772;DHT22;4925;52.588;13.370;2023-08-17T13:43:23;31.90;94.60
9772;DHT22;4925;52.588;13.370;2023-08-17T13:45:49;31.80;94.30
9772;DHT22;4925;52.588;13.370;2023-08-17T13:48:15;31.60;94.50
9772;DHT22;4925;52.588;13.370;2023-08-17T13:50:40;31.50;94.20
9772;DHT22;4925;52.588;13.370;2023-08-17T13:53:06;31.50;94.50
9772;DHT22;4925;52.588;13.370;2023-08-17T13:55:32;31.60;94.50
9772;DHT22;4925;52.588;13.370;2023-08-17T13:57:58;31.80;94.00
9772;DHT22;4925;52.588;13.370;2023-08-17T14:00:24;32.10;93.20
9772;DHT22;4925;52.588;13.370;2023-08-17T14:02:50;32.40;92.90
9772;DHT22;4925;52.588;13.370;2023-08-17T14:05:16;32.40;92.70
9772;DHT22;4925;52.588;13.370;2023-08-17T14:07:42;32.20;92.70
9772;DHT22;4925;52.588;13.370;2023-08-17T14:10:08;32.10;92.90
9772;DHT22;4925;52.588;13.370;2023-08-17T14:12:34;32.30;93.30
9772;DHT22;4925;52.588;13.370;2023-08-17T14:15:00;32.30;92.80
9772;DHT22;4925;52.588;13.370;2023-08-17T14:17:26;32.40;92.50
9772;DHT22;4925;52.588;13.370;2023-08-17T14:19:51;32.40;92.50
9772;DHT22;4925;52.588;13.370;2023-08-17T14:22:17;32.40;92.30
9772;DHT22;4925;52.588;13.370;2023-08-17T14:24:43;32.40;92.60
9772;DHT22;4925;52.588;13.370;2023-08-17T14:27:08;32.00;92.30
9772;DHT22;4925;52.588;13.370;2023-08-17T14:29:34;32.00;92.90
9772;DHT22;4925;52.588;13.370;2023-08-17T14:32:00;31.90;92.80
9772;DHT22;4925;52.588;13.370;2023-08-17T14:34:25;31.90;92.90
9772;DHT22;4925;52.588;13.370;2023-08-17T14:36:51;31.90;92.80
9772;DHT22;4925;52.588;13.370;2023-08-17T14:39:17;31.80;93.00
9772;DHT22;4925;52.588;13.370;2023-08-17T14:41:42;31.80;93.10
9772;DHT22;4925;52.588;13.370;2023-08-17T14:44:08;31.60;93.30
9772;DHT22;4925;52.588;13.370;2023-08-17T14:46:34;31.60;93.80
9772;DHT22;4925;52.588;13.370;2023-08-17T14:49:00;31.70;94.00
9772;DHT22;4925;52.588;13.370;2023-08-17T14:51:28;31.60;94.10
9772;DHT22;4925;52.588;13.370;2023-08-17T14:53:55;31.60;94.20
9772;DHT22;4925;52.588;13.370;2023-08-17T14:56:22;31.70;94.00
9772;DHT22;4925;52.588;13.370;2023-08-17T14:58:48;31.60;93.90
9772;DHT22;4925;52.588;13.370;2023-08-17T15:01:13;31.60;93.60
9772;DHT22;4925;52.588;13.370;2023-08-17T15:03:39;31.50;93.80
9772;DHT22;4925;52.588;13.370;2023-08-17T15:06:06;31.30;94.40
9772;DHT22;4925;52.588;13.370;2023-08-17T15:08:32;31.30;94.50
9772;DHT22;4925;52.588;13.370;2023-08-17T15:10:58;31.10;94.90
9772;DHT22;4925;52.588;13.370;2023-08-17T15:13:28;30.90;95.50
9772;DHT22;4925;52.588;13.370;2023-08-17T15:15:55;30.70;95.70
9772;DHT22;4925;52.588;13.370;2023-08-17T15:18:21;30.70;95.20
9772;DHT22;4925;52.588;13.370;2023-08-17T15:20:47;30.70;95.40
9772;DHT22;4925;52.588;13.370;2023-08-17T15:23:13;30.80;95.80
9772;DHT22;4925;52.588;13.370;2023-08-17T15:25:38;30.60;95.90
9772;DHT22;4925;52.588;13.370;2023-08-17T15:28:04;30.70;95.90
9772;DHT22;4925;52.588;13.370;2023-08-17T15:30:30;30.60;95.80
9772;DHT22;4925;52.588;13.370;2023-08-17T15:32:55;30.50;95.90
9772;DHT22;4925;52.588;13.370;2023-08-17T15:35:21;30.50;96.30
9772;DHT22;4925;52.588;13.370;2023-08-17T15:37:47;30.50;96.20
9772;DHT22;4925;52.588;13.370;2023-08-17T15:40:13;30.40;96.40
9772;DHT22;4925;52.588;13.370;2023-08-17T15:42:38;30.50;96.50
9772;DHT22;4925;52.588;13.370;2023-08-17T15:45:05;30.50;97.00
9772;DHT22;4925;52.588;13.370;2023-08-17T15:47:30;30.50;97.00